Time;durP1;ratioP1;P1;durP2;ratioP2;P2;SDS_P1;SDS_P2;PMS_P1;PMS_P2;Temp;Humidity;BMP_temperature;BMP_pressure;BME280_temperature;BME280_humidity;BME280_pressure;Samples;Min_cycle;Max_cycle;Signal;HPM_P1;HPM_P2
2023/12/19 00:02:03;;;;;;;6.93;2.80;;;;;;;;;;4940994;29;20052;-75
2023/12/19 00:04:30;;;;;;;8.57;3.58;;;;;;;;;;4936911;29;20019;-75
2023/12/19 00:06:55;;;;;;;6.30;2.55;;;;;;;;;;4933631;29;20082;-74
2023/12/19 00:09:21;;;;;;;6.50;2.83;;;;;;;;;;4934172;29;20240;-75
2023/12/19 00:11:46;;;;;;;5.43;2.50;;;;;;;;;;4932199;29;20058;-75
2023/12/19 00:14:12;;;;;;;6.88;2.80;;;;;;;;;;4936525;29;20050;-77
2023/12/19 00:16:37;;;;;;;9.35;3.40;;;;;;;;;;4935752;29;20051;-75
2023/12/19 00:19:02;;;;;;;5.95;2.70;;;;;;;;;;4934661;28;20832;-75
2023/12/19 00:21:27;;;;;;;7.60;2.45;;;;;;;;;;4933564;29;20654;-75
2023/12/19 00:23:52;;;;;;;4.72;2.58;;;;;;;;;;4935439;29;20024;-76
2023/12/19 00:26:18;;;;;;;6.00;2.85;;;;;;;;;;4942042;29;20018;-76
2023/12/19 00:28:44;;;;;;;6.88;2.85;;;;;;;;;;4936606;28;20070;-75
2023/12/19 00:31:09;;;;;;;10.20;3.10;;;;;;;;;;4933102;29;20389;-73
2023/12/19 00:33:34;;;;;;;6.90;3.25;;;;;;;;;;4934592;29;20028;-73
2023/12/19 00:35:59;;;;;;;9.35;3.28;;;;;;;;;;4933729;29;20563;-73
2023/12/19 00:38:24;;;;;;;8.43;3.22;;;;;;;;;;4936647;29;20024;-73
2023/12/19 00:40:50;;;;;;;5.03;2.50;;;;;;;;;;4936356;29;20046;-73
2023/12/19 00:43:15;;;;;;;7.78;3.00;;;;;;;;;;4939928;29;20498;-73
2023/12/19 00:45:40;;;;;;;5.97;2.97;;;;;;;;;;4933353;29;20388;-74
2023/12/19 00:48:06;;;;;;;7.68;3.42;;;;;;;;;;4939421;29;20023;-73
2023/12/19 00:50:31;;;;;;;7.20;3.15;;;;;;;;;;4980190;23;20106;-69
2023/12/19 00:52:56;;;;;;;6.38;2.85;;;;;;;;;;4986057;28;20027;-68
2023/12/19 00:55:22;;;;;;;6.63;3.30;;;;;;;;;;4971182;28;20477;-69
2023/12/19 00:57:47;;;;;;;7.75;3.33;;;;;;;;;;4970459;28;20510;-69
2023/12/19 01:00:12;;;;;;;4.75;2.55;;;;;;;;;;4971583;28;20025;-68
2023/12/19 01:02:38;;;;;;;8.40;3.55;;;;;;;;;;4974421;28;20022;-68
2023/12/19 01:05:03;;;;;;;8.55;3.40;;;;;;;;;;4970232;28;20097;-69
2023/12/19 01:07:28;;;;;;;7.38;3.13;;;;;;;;;;4972178;28;20039;-69
2023/12/19 01:09:53;;;;;;;7.07;3.47;;;;;;;;;;4969224;28;20399;-70
2023/12/19 01:12:19;;;;;;;6.28;2.80;;;;;;;;;;4969293;28;20010;-68
2023/12/19 01:14:44;;;;;;;4.85;2.80;;;;;;;;;;4967019;28;20029;-67
2023/12/19 01:17:10;;;;;;;6.05;3.15;;;;;;;;;;4969848;28;20102;-68
2023/12/19 01:19:35;;;;;;;6.50;2.92;;;;;;;;;;4971047;28;20037;-68
2023/12/19 01:22:00;;;;;;;7.25;3.00;;;;;;;;;;4969925;28;20027;-67
2023/12/19 01:24:25;;;;;;;4.75;2.50;;;;;;;;;;4971079;28;20034;-68
2023/12/19 01:26:51;;;;;;;5.82;3.08;;;;;;;;;;4970006;28;20035;-68
2023/12/19 01:29:17;;;;;;;7.72;3.15;;;;;;;;;;4970266;28;20023;-69
2023/12/19 01:31:42;;;;;;;5.90;3.10;;;;;;;;;;4970283;28;20034;-69
2023/12/19 01:34:07;;;;;;;5.20;2.50;;;;;;;;;;4970317;28;20030;-69
2023/12/19 01:36:33;;;;;;;6.90;2.88;;;;;;;;;;4968743;28;20080;-68
2023/12/19 01:38:58;;;;;;;4.50;2.60;;;;;;;;;;4970411;28;20097;-69
2023/12/19 01:41:23;;;;;;;5.10;2.50;;;;;;;;;;4970713;28;20031;-70
2023/12/19 01:43:49;;;;;;;4.50;2.10;;;;;;;;;;4969882;28;20029;-68
2023/12/19 01:46:15;;;;;;;6.28;2.85;;;;;;;;;;4969535;28;20050;-66
2023/12/19 01:48:41;;;;;;;7.88;3.00;;;;;;;;;;4970596;28;20372;-67
2023/12/19 01:51:06;;;;;;;8.20;3.10;;;;;;;;;;4969453;28;20542;-68
2023/12/19 01:53:31;;;;;;;6.65;2.80;;;;;;;;;;4969142;28;20015;-68
2023/12/19 01:55:57;;;;;;;11.18;3.08;;;;;;;;;;4970123;28;20059;-69
2023/12/19 01:58:23;;;;;;;6.25;2.88;;;;;;;;;;4969625;28;20390;-69
2023/12/19 02:00:49;;;;;;;8.30;3.65;;;;;;;;;;4969477;28;20023;-68
2023/12/19 02:03:14;;;;;;;8.05;2.90;;;;;;;;;;4969058;28;20015;-70
2023/12/19 02:05:41;;;;;;;6.43;3.00;;;;;;;;;;4969085;28;20027;-68
2023/12/19 02:08:06;;;;;;;5.70;3.00;;;;;;;;;;4970430;28;20025;-69
2023/12/19 02:10:31;;;;;;;9.07;3.35;;;;;;;;;;4968434;28;20007;-69
2023/12/19 02:12:57;;;;;;;5.93;2.65;;;;;;;;;;4965553;28;20507;-69
2023/12/19 02:15:22;;;;;;;6.78;3.08;;;;;;;;;;4969441;28;20158;-70
2023/12/19 02:17:47;;;;;;;6.88;3.25;;;;;;;;;;4969223;28;20030;-69
2023/12/19 02:20:14;;;;;;;5.70;2.80;;;;;;;;;;4970010;28;20019;-67
2023/12/19 02:22:39;;;;;;;6.82;2.97;;;;;;;;;;4970606;28;20489;-69
2023/12/19 02:25:05;;;;;;;7.35;3.40;;;;;;;;;;4973845;28;20102;-68
2023/12/19 02:27:31;;;;;;;7.28;3.10;;;;;;;;;;4973939;28;20158;-68
2023/12/19 02:29:56;;;;;;;6.18;3.08;;;;;;;;;;4973488;28;20023;-69
2023/12/19 02:32:21;;;;;;;6.45;2.85;;;;;;;;;;4974382;28;20023;-69
2023/12/19 02:34:48;;;;;;;7.75;3.50;;;;;;;;;;4974111;28;20038;-68
2023/12/19 02:37:13;;;;;;;7.13;3.53;;;;;;;;;;4972786;28;20530;-69
2023/12/19 02:39:38;;;;;;;8.40;3.05;;;;;;;;;;4973852;28;20033;-68
2023/12/19 02:42:04;;;;;;;7.40;2.90;;;;;;;;;;4972505;28;20125;-70
2023/12/19 02:44:29;;;;;;;6.65;2.97;;;;;;;;;;4971853;28;20029;-69
2023/12/19 02:46:54;;;;;;;7.18;3.50;;;;;;;;;;4973157;28;20026;-68
2023/12/19 02:49:20;;;;;;;7.95;3.17;;;;;;;;;;4975023;28;20013;-69
2023/12/19 02:51:45;;;;;;;7.53;3.63;;;;;;;;;;4971512;28;20031;-68
2023/12/19 02:54:10;;;;;;;9.27;3.97;;;;;;;;;;4974277;28;20025;-69
2023/12/19 02:56:35;;;;;;;7.55;3.42;;;;;;;;;;4972893;28;20103;-68
2023/12/19 02:59:01;;;;;;;10.32;4.05;;;;;;;;;;4972777;28;20034;-68
2023/12/19 03:01:26;;;;;;;7.10;3.33;;;;;;;;;;4969544;28;20161;-68
2023/12/19 03:03:52;;;;;;;6.43;3.67;;;;;;;;;;4971297;28;20038;-68
2023/12/19 03:06:17;;;;;;;7.53;3.40;;;;;;;;;;4973345;28;20023;-69
2023/12/19 03:08:46;;;;;;;7.55;3.67;;;;;;;;;;4976151;28;20026;-68
2023/12/19 03:11:11;;;;;;;7.15;3.70;;;;;;;;;;4967242;28;20015;-68
2023/12/19 03:13:36;;;;;;;9.35;4.22;;;;;;;;;;4968132;28;20030;-68
2023/12/19 03:16:02;;;;;;;8.25;4.13;;;;;;;;;;4972221;28;20011;-68
2023/12/19 03:18:27;;;;;;;7.30;3.75;;;;;;;;;;4972707;28;20021;-68
2023/12/19 03:20:52;;;;;;;8.90;3.90;;;;;;;;;;4972446;28;20255;-68
2023/12/19 03:23:18;;;;;;;7.88;3.60;;;;;;;;;;4972752;28;20018;-68
2023/12/19 03:25:44;;;;;;;7.35;3.30;;;;;;;;;;4972684;28;20033;-67
2023/12/19 03:28:09;;;;;;;8.60;4.18;;;;;;;;;;4964928;28;20025;-69
2023/12/19 03:30:34;;;;;;;8.18;3.47;;;;;;;;;;4971958;28;20379;-68
2023/12/19 03:32:59;;;;;;;11.00;4.13;;;;;;;;;;4972594;28;20419;-68
2023/12/19 03:35:25;;;;;;;10.20;4.32;;;;;;;;;;4972160;28;20073;-68
2023/12/19 03:37:50;;;;;;;10.95;4.18;;;;;;;;;;4971107;28;20475;-68
2023/12/19 03:40:16;;;;;;;6.47;3.78;;;;;;;;;;4972771;28;20101;-68
2023/12/19 03:42:41;;;;;;;9.48;3.95;;;;;;;;;;4972635;28;20401;-67
2023/12/19 03:45:06;;;;;;;8.75;3.78;;;;;;;;;;4971680;28;20022;-68
2023/12/19 03:47:32;;;;;;;7.55;3.92;;;;;;;;;;4972280;28;20025;-68
2023/12/19 03:49:57;;;;;;;9.00;4.65;;;;;;;;;;4972638;28;20501;-68
2023/12/19 03:52:23;;;;;;;11.52;4.70;;;;;;;;;;4972583;28;20065;-68
2023/12/19 03:54:49;;;;;;;9.55;4.15;;;;;;;;;;4974212;28;20030;-68
2023/12/19 03:57:14;;;;;;;8.57;4.00;;;;;;;;;;4974246;28;20089;-68
2023/12/19 03:59:41;;;;;;;8.07;3.60;;;;;;;;;;4973736;28;20027;-68
2023/12/19 04:02:06;;;;;;;8.13;4.30;;;;;;;;;;4971931;28;20037;-69
2023/12/19 04:04:32;;;;;;;9.40;4.88;;;;;;;;;;4972771;28;20482;-70
2023/12/19 04:06:57;;;;;;;8.50;4.13;;;;;;;;;;4972287;28;20081;-69
2023/12/19 04:09:22;;;;;;;8.55;4.32;;;;;;;;;;4972228;28;20023;-68
2023/12/19 04:11:47;;;;;;;8.50;4.65;;;;;;;;;;4971690;28;20598;-69
2023/12/19 04:14:16;;;;;;;10.60;4.63;;;;;;;;;;4972058;28;20545;-68
2023/12/19 04:16:41;;;;;;;7.18;4.03;;;;;;;;;;4970961;28;20030;-68
2023/12/19 04:19:06;;;;;;;8.20;4.40;;;;;;;;;;4971868;28;20019;-69
2023/12/19 04:21:32;;;;;;;8.32;4.07;;;;;;;;;;4971588;28;20029;-68
2023/12/19 04:23:57;;;;;;;10.65;4.65;;;;;;;;;;4971191;28;20372;-68
2023/12/19 04:26:22;;;;;;;10.52;4.47;;;;;;;;;;4971579;28;20039;-68
2023/12/19 04:28:47;;;;;;;7.45;4.07;;;;;;;;;;4971505;28;20130;-68
2023/12/19 04:31:13;;;;;;;9.98;4.20;;;;;;;;;;4971300;28;20019;-67
2023/12/19 04:33:38;;;;;;;8.52;4.20;;;;;;;;;;4971924;28;20058;-68
2023/12/19 04:36:04;;;;;;;11.55;4.10;;;;;;;;;;4971244;28;20466;-69
2023/12/19 04:38:30;;;;;;;9.43;4.28;;;;;;;;;;4970595;28;20018;-68
2023/12/19 04:40:55;;;;;;;10.98;4.15;;;;;;;;;;4971025;28;20045;-69
2023/12/19 04:43:20;;;;;;;8.55;4.03;;;;;;;;;;4971819;28;20022;-69
2023/12/19 04:45:46;;;;;;;9.48;4.60;;;;;;;;;;4972141;28;20055;-69
2023/12/19 04:48:11;;;;;;;12.82;4.85;;;;;;;;;;4973963;28;20475;-68
2023/12/19 04:50:36;;;;;;;8.98;4.22;;;;;;;;;;4973769;28;20077;-70
2023/12/19 04:53:01;;;;;;;10.00;4.68;;;;;;;;;;4974485;28;20527;-69
2023/12/19 04:55:27;;;;;;;9.25;4.32;;;;;;;;;;4972388;28;20625;-69
2023/12/19 04:57:52;;;;;;;6.55;3.72;;;;;;;;;;4971530;28;20022;-69
2023/12/19 05:00:18;;;;;;;10.07;4.47;;;;;;;;;;4971294;28;20042;-69
2023/12/19 05:02:43;;;;;;;9.15;4.30;;;;;;;;;;4969276;28;20033;-67
2023/12/19 05:05:08;;;;;;;9.15;4.35;;;;;;;;;;4971028;28;20034;-68
2023/12/19 05:07:33;;;;;;;9.88;4.20;;;;;;;;;;4970928;28;20018;-68
2023/12/19 05:09:58;;;;;;;7.68;4.30;;;;;;;;;;4968594;28;20019;-70
2023/12/19 05:12:24;;;;;;;8.88;4.43;;;;;;;;;;4970239;28;20549;-69
2023/12/19 05:14:49;;;;;;;10.63;5.03;;;;;;;;;;4968151;28;20490;-70
2023/12/19 05:17:15;;;;;;;16.05;5.00;;;;;;;;;;4970120;28;20094;-69
2023/12/19 05:19:40;;;;;;;9.13;3.85;;;;;;;;;;4971039;28;20553;-70
2023/12/19 05:22:05;;;;;;;9.43;4.75;;;;;;;;;;4970324;28;20062;-70
2023/12/19 05:24:32;;;;;;;10.45;4.25;;;;;;;;;;4970444;28;20030;-69
2023/12/19 05:26:59;;;;;;;9.18;4.55;;;;;;;;;;4970349;28;20026;-68
2023/12/19 05:29:24;;;;;;;7.57;4.22;;;;;;;;;;4970146;28;20386;-67
2023/12/19 05:31:49;;;;;;;8.52;4.72;;;;;;;;;;4969756;28;20014;-68
2023/12/19 05:34:14;;;;;;;10.90;4.68;;;;;;;;;;4970832;28;20043;-68
2023/12/19 05:36:45;;;;;;;13.60;4.68;;;;;;;;;;4969342;28;20037;-68
2023/12/19 05:39:11;;;;;;;9.32;4.93;;;;;;;;;;4967249;28;20486;-69
2023/12/19 05:41:37;;;;;;;11.10;4.20;;;;;;;;;;4970706;28;20085;-69
2023/12/19 05:44:02;;;;;;;9.85;4.32;;;;;;;;;;4969867;28;20061;-68
2023/12/19 05:46:27;;;;;;;10.65;4.93;;;;;;;;;;4969506;28;20022;-70
2023/12/19 05:48:52;;;;;;;10.45;4.30;;;;;;;;;;4970309;28;20084;-69
2023/12/19 05:51:18;;;;;;;8.98;4.13;;;;;;;;;;4969707;28;20023;-69
2023/12/19 05:53:43;;;;;;;9.00;4.30;;;;;;;;;;4967744;28;20027;-69
2023/12/19 05:56:12;;;;;;;11.15;4.65;;;;;;;;;;4963533;28;20034;-69
2023/12/19 05:58:37;;;;;;;8.90;4.35;;;;;;;;;;4965293;28;20014;-68
2023/12/19 06:01:02;;;;;;;10.48;4.63;;;;;;;;;;4966285;28;20078;-68
2023/12/19 06:03:28;;;;;;;7.55;4.45;;;;;;;;;;4967916;28;20054;-75
2023/12/19 06:05:53;;;;;;;8.93;4.70;;;;;;;;;;4969265;28;20031;-69
2023/12/19 06:08:19;;;;;;;17.05;6.00;;;;;;;;;;4970838;28;20030;-69
2023/12/19 06:10:44;;;;;;;9.32;4.80;;;;;;;;;;4966168;28;20019;-68
2023/12/19 06:13:10;;;;;;;11.85;4.93;;;;;;;;;;4967036;28;20110;-70
2023/12/19 06:15:35;;;;;;;10.45;4.72;;;;;;;;;;4969019;28;20070;-68
2023/12/19 06:18:00;;;;;;;8.85;4.60;;;;;;;;;;4969600;28;20406;-71
2023/12/19 06:20:25;;;;;;;11.13;4.82;;;;;;;;;;4969579;28;20590;-69
2023/12/19 06:22:50;;;;;;;13.50;4.95;;;;;;;;;;4969506;28;20027;-67
2023/12/19 06:25:16;;;;;;;9.10;5.22;;;;;;;;;;4969567;28;20422;-67
2023/12/19 06:27:43;;;;;;;17.13;4.85;;;;;;;;;;4969348;28;20027;-68
2023/12/19 06:30:10;;;;;;;13.20;4.93;;;;;;;;;;4968609;28;20015;-68
2023/12/19 06:32:36;;;;;;;9.00;4.53;;;;;;;;;;4970147;28;20037;-69
2023/12/19 06:35:02;;;;;;;9.02;4.72;;;;;;;;;;4970058;28;20026;-68
2023/12/19 06:37:27;;;;;;;8.63;4.20;;;;;;;;;;4968028;28;20390;-68
2023/12/19 06:39:53;;;;;;;8.00;4.43;;;;;;;;;;4968365;28;20528;-67
2023/12/19 06:42:19;;;;;;;8.35;4.28;;;;;;;;;;4969711;28;20081;-66
2023/12/19 06:44:44;;;;;;;10.50;4.57;;;;;;;;;;4966004;28;20462;-68
2023/12/19 06:47:10;;;;;;;9.05;4.53;;;;;;;;;;4968282;28;20027;-69
2023/12/19 06:49:35;;;;;;;9.68;4.50;;;;;;;;;;4970240;28;20561;-69
2023/12/19 06:52:00;;;;;;;11.30;4.50;;;;;;;;;;4987909;23;20046;-73
2023/12/19 06:54:25;;;;;;;15.93;5.50;;;;;;;;;;4969555;28;20026;-72
2023/12/19 06:56:51;;;;;;;11.65;5.07;;;;;;;;;;4968700;28;20030;-72
2023/12/19 06:59:16;;;;;;;10.65;4.72;;;;;;;;;;4969403;28;20042;-71
2023/12/19 07:01:42;;;;;;;11.98;5.15;;;;;;;;;;4968401;28;20071;-72
2023/12/19 07:04:07;;;;;;;9.95;4.97;;;;;;;;;;4968129;28;20093;-72
2023/12/19 07:06:32;;;;;;;11.93;5.40;;;;;;;;;;4968302;28;20530;-72
2023/12/19 07:08:58;;;;;;;12.10;5.13;;;;;;;;;;4968416;28;20030;-73
2023/12/19 07:11:24;;;;;;;16.42;5.07;;;;;;;;;;4970088;28;20023;-72
2023/12/19 07:13:50;;;;;;;10.43;5.05;;;;;;;;;;4974558;28;20018;-72
2023/12/19 07:16:17;;;;;;;12.02;5.47;;;;;;;;;;4970563;28;20014;-74
2023/12/19 07:18:43;;;;;;;13.75;4.80;;;;;;;;;;4973262;28;20063;-72
2023/12/19 07:21:17;;;;;;;8.60;3.95;;;;;;;;;;4972134;28;20019;-71
2023/12/19 07:23:42;;;;;;;8.02;3.72;;;;;;;;;;4966278;28;20027;-72
2023/12/19 07:26:07;;;;;;;8.30;3.65;;;;;;;;;;4965819;28;20023;-70
2023/12/19 07:28:32;;;;;;;9.55;4.40;;;;;;;;;;4972116;28;20015;-71
2023/12/19 07:30:58;;;;;;;8.95;3.92;;;;;;;;;;4971925;28;20023;-74
2023/12/19 07:33:23;;;;;;;8.88;4.20;;;;;;;;;;4974084;28;20098;-72
2023/12/19 07:35:48;;;;;;;12.40;3.95;;;;;;;;;;4971466;28;20405;-73
2023/12/19 07:38:14;;;;;;;8.18;3.60;;;;;;;;;;4972129;28;20022;-72
2023/12/19 07:40:39;;;;;;;10.57;3.58;;;;;;;;;;4974221;28;20082;-71
2023/12/19 07:43:05;;;;;;;16.90;3.83;;;;;;;;;;4967946;28;20468;-71
2023/12/19 07:45:32;;;;;;;8.70;3.08;;;;;;;;;;4970030;28;20411;-70
2023/12/19 07:47:57;;;;;;;8.77;3.67;;;;;;;;;;4972122;28;20463;-72
2023/12/19 07:50:22;;;;;;;9.30;3.92;;;;;;;;;;4971959;28;20065;-74
2023/12/19 07:52:49;;;;;;;7.05;3.53;;;;;;;;;;4971824;28;20031;-71
2023/12/19 07:55:14;;;;;;;10.82;3.88;;;;;;;;;;4972266;28;20046;-69
2023/12/19 07:57:39;;;;;;;7.72;3.00;;;;;;;;;;4971231;28;20406;-71
2023/12/19 08:00:05;;;;;;;5.72;2.67;;;;;;;;;;4969784;28;20065;-69
2023/12/19 08:02:32;;;;;;;6.20;2.85;;;;;;;;;;4971181;28;20467;-71
2023/12/19 08:04:57;;;;;;;5.78;3.00;;;;;;;;;;4968413;28;20169;-71
2023/12/19 08:07:22;;;;;;;9.45;2.80;;;;;;;;;;4975357;28;20343;-73
2023/12/19 08:09:48;;;;;;;10.00;3.15;;;;;;;;;;4971743;28;20018;-72
2023/12/19 08:12:13;;;;;;;7.70;3.20;;;;;;;;;;4971252;28;20088;-72
2023/12/19 08:14:39;;;;;;;9.95;3.15;;;;;;;;;;4967226;28;20023;-71
2023/12/19 08:17:04;;;;;;;6.15;2.33;;;;;;;;;;4970553;28;20479;-72
2023/12/19 08:19:29;;;;;;;11.02;2.88;;;;;;;;;;4972443;28;20486;-73
2023/12/19 08:21:55;;;;;;;5.85;3.15;;;;;;;;;;4970754;28;20042;-73
2023/12/19 08:24:21;;;;;;;6.05;3.15;;;;;;;;;;4971332;28;20033;-71
2023/12/19 08:26:47;;;;;;;6.05;2.63;;;;;;;;;;4970675;28;20498;-72
2023/12/19 08:29:12;;;;;;;7.90;2.83;;;;;;;;;;4970849;28;20019;-71
2023/12/19 08:31:38;;;;;;;6.80;2.60;;;;;;;;;;4971024;28;20081;-73
2023/12/19 08:34:07;;;;;;;10.18;2.80;;;;;;;;;;4970760;28;20011;-73
2023/12/19 08:36:32;;;;;;;;;;;;;;;;;;4969770;28;20610;-69
2023/12/19 08:38:57;;;;;;;8.25;2.90;;;;;;;;;;4970352;28;19960;-71
2023/12/19 08:41:23;;;;;;;8.95;3.55;;;;;;;;;;4969756;28;20502;-69
2023/12/19 08:43:49;;;;;;;8.35;3.20;;;;;;;;;;4968701;28;20131;-71
2023/12/19 08:46:17;;;;;;;15.90;3.42;;;;;;;;;;4970261;28;20076;-70
2023/12/19 08:48:43;;;;;;;6.40;2.63;;;;;;;;;;4971267;28;20015;-73
2023/12/19 08:51:09;;;;;;;6.18;2.50;;;;;;;;;;4970232;28;20117;-72
2023/12/19 08:53:34;;;;;;;8.82;3.20;;;;;;;;;;4953389;28;20122;-69
2023/12/19 08:55:59;;;;;;;7.70;3.47;;;;;;;;;;4970235;28;20030;-73
2023/12/19 08:58:24;;;;;;;7.68;3.00;;;;;;;;;;4970180;28;20061;-73
2023/12/19 09:00:50;;;;;;;9.95;3.13;;;;;;;;;;4963749;28;20055;-71
2023/12/19 09:03:15;;;;;;;7.53;2.80;;;;;;;;;;4965400;28;20031;-72
2023/12/19 09:05:40;;;;;;;6.90;3.85;;;;;;;;;;4969769;28;20022;-70
2023/12/19 09:08:05;;;;;;;8.00;3.40;;;;;;;;;;4970999;28;20019;-72
2023/12/19 09:10:30;;;;;;;8.73;2.97;;;;;;;;;;4967222;28;20021;-72
2023/12/19 09:12:56;;;;;;;7.72;3.72;;;;;;;;;;4970515;28;20029;-71
2023/12/19 09:15:21;;;;;;;6.70;3.50;;;;;;;;;;4969901;28;20023;-71
2023/12/19 09:17:46;;;;;;;11.73;3.58;;;;;;;;;;4970225;28;20098;-73
2023/12/19 09:20:11;;;;;;;15.45;3.50;;;;;;;;;;4966756;28;20434;-74
2023/12/19 09:22:37;;;;;;;9.07;3.50;;;;;;;;;;4970743;28;20586;-68
2023/12/19 09:25:02;;;;;;;7.93;3.25;;;;;;;;;;4970220;28;20027;-71
2023/12/19 09:27:28;;;;;;;8.30;3.35;;;;;;;;;;4964781;28;20026;-74
2023/12/19 09:29:53;;;;;;;11.43;4.38;;;;;;;;;;4963465;28;20082;-74
2023/12/19 09:32:19;;;;;;;6.07;3.30;;;;;;;;;;4967252;28;20015;-72
2023/12/19 09:34:44;;;;;;;9.10;3.40;;;;;;;;;;4965797;28;20035;-72
2023/12/19 09:37:09;;;;;;;9.38;3.30;;;;;;;;;;4967929;28;20611;-73
2023/12/19 09:39:35;;;;;;;6.65;3.17;;;;;;;;;;4966151;28;20019;-70
2023/12/19 09:42:00;;;;;;;9.40;3.75;;;;;;;;;;4970360;28;20023;-70
2023/12/19 09:44:26;;;;;;;6.25;3.13;;;;;;;;;;4969904;28;20015;-70
2023/12/19 09:46:51;;;;;;;8.68;3.17;;;;;;;;;;4969034;28;20109;-71
2023/12/19 09:49:24;;;;;;;5.15;2.80;;;;;;;;;;4970399;28;20097;-72
2023/12/19 09:51:51;;;;;;;6.95;2.70;;;;;;;;;;4969253;28;20134;-73
2023/12/19 09:54:17;;;;;;;6.75;3.10;;;;;;;;;;4969657;28;20057;-74
2023/12/19 09:56:43;;;;;;;8.55;3.05;;;;;;;;;;4966296;28;20034;-75
2023/12/19 09:59:08;;;;;;;8.68;3.50;;;;;;;;;;4969470;28;20019;-73
2023/12/19 10:01:33;;;;;;;10.88;3.20;;;;;;;;;;4969488;28;20023;-73
2023/12/19 10:03:59;;;;;;;5.53;2.85;;;;;;;;;;4968476;28;20031;-71
2023/12/19 10:06:24;;;;;;;6.50;3.40;;;;;;;;;;4969704;28;20051;-73
2023/12/19 10:08:52;;;;;;;15.02;3.45;;;;;;;;;;4969241;28;20014;-73
2023/12/19 10:11:18;;;;;;;14.02;3.63;;;;;;;;;;4967322;28;20081;-73
2023/12/19 10:13:43;;;;;;;9.38;3.35;;;;;;;;;;4965291;28;20799;-73
2023/12/19 10:16:11;;;;;;;5.03;2.70;;;;;;;;;;4969116;28;20018;-71
2023/12/19 10:18:37;;;;;;;7.03;3.05;;;;;;;;;;4969777;28;20019;-72
2023/12/19 10:21:10;;;;;;;6.15;2.67;;;;;;;;;;4969604;28;20023;-70
2023/12/19 10:23:38;;;;;;;10.88;3.72;;;;;;;;;;4970104;28;20023;-70
2023/12/19 10:26:06;;;;;;;5.30;3.10;;;;;;;;;;4972642;28;20035;-73
2023/12/19 10:28:34;;;;;;;7.07;3.63;;;;;;;;;;4971535;28;20308;-73
2023/12/19 10:31:06;;;;;;;7.05;3.28;;;;;;;;;;4969311;28;20031;-73
2023/12/19 10:33:45;;;;;;;7.00;3.05;;;;;;;;;;4972173;28;20019;-69
2023/12/19 10:36:29;;;;;;;11.23;3.60;;;;;;;;;;4970050;28;20498;-72
2023/12/19 10:38:55;;;;;;;7.13;3.40;;;;;;;;;;4969758;28;20027;-73
2023/12/19 10:41:22;;;;;;;7.10;3.70;;;;;;;;;;4971381;28;20033;-73
2023/12/19 10:43:51;;;;;;;7.03;3.40;;;;;;;;;;4970749;28;20418;-72
2023/12/19 10:46:17;;;;;;;13.50;3.50;;;;;;;;;;4964564;28;20014;-71
2023/12/19 10:48:43;;;;;;;8.02;3.60;;;;;;;;;;4974200;28;20106;-73
2023/12/19 10:51:10;;;;;;;6.55;3.05;;;;;;;;;;4973388;28;20190;-72
2023/12/19 10:53:35;;;;;;;8.90;3.50;;;;;;;;;;4972316;28;20022;-72
2023/12/19 10:56:03;;;;;;;8.55;3.58;;;;;;;;;;4973032;28;20026;-73
2023/12/19 10:58:28;;;;;;;9.63;3.50;;;;;;;;;;4966705;28;20073;-73
2023/12/19 11:00:55;;;;;;;9.18;4.47;;;;;;;;;;4969656;28;20026;-73
2023/12/19 11:03:26;;;;;;;9.20;3.83;;;;;;;;;;4971811;28;20027;-70
2023/12/19 11:05:54;;;;;;;7.78;3.33;;;;;;;;;;4966762;28;20031;-73
2023/12/19 11:08:19;;;;;;;9.43;3.22;;;;;;;;;;4973983;28;20033;-74
2023/12/19 11:10:50;;;;;;;7.78;3.47;;;;;;;;;;4970734;28;20030;-73
2023/12/19 11:13:16;;;;;;;7.65;3.72;;;;;;;;;;4971098;28;20105;-72
2023/12/19 11:15:44;;;;;;;9.02;3.60;;;;;;;;;;4972582;28;20122;-73
2023/12/19 11:18:15;;;;;;;18.08;3.97;;;;;;;;;;4972592;28;20022;-73
2023/12/19 11:20:42;;;;;;;10.07;3.83;;;;;;;;;;4972789;28;20442;-72
2023/12/19 11:23:15;;;;;;;9.63;4.05;;;;;;;;;;4972797;28;20054;-73
2023/12/19 11:25:44;;;;;;;9.93;3.20;;;;;;;;;;4973009;28;20027;-72
2023/12/19 11:28:09;;;;;;;10.48;3.63;;;;;;;;;;4972330;28;20023;-71
2023/12/19 11:30:36;;;;;;;14.88;3.92;;;;;;;;;;4971883;28;20015;-76
2023/12/19 11:33:05;;;;;;;7.45;3.35;;;;;;;;;;4971298;28;20023;-70
2023/12/19 11:35:30;;;;;;;;;;;;;;;;;;4972515;28;20015;-70
2023/12/19 11:38:17;;;;;;;8.70;3.65;;;;;;;;;;4971014;28;20392;-72
2023/12/19 11:40:46;;;;;;;6.40;3.10;;;;;;;;;;4972525;28;20027;-72
2023/12/19 11:43:12;;;;;;;;;;;;;;;;;;4967470;28;20022;-72
2023/12/19 11:45:37;;;;;;;6.75;3.55;;;;;;;;;;4971579;28;20389;-70
2023/12/19 11:48:22;;;;;;;7.65;3.30;;;;;;;;;;4966516;28;20296;-72
2023/12/19 11:50:48;;;;;;;8.25;3.47;;;;;;;;;;4972178;28;20031;-74
2023/12/19 11:53:20;;;;;;;6.47;3.38;;;;;;;;;;4964013;28;20030;-72
2023/12/19 11:55:46;;;;;;;7.88;3.60;;;;;;;;;;4974999;28;20038;-71
2023/12/19 11:58:12;;;;;;;7.82;3.53;;;;;;;;;;4970961;28;20027;-72
2023/12/19 12:00:38;;;;;;;13.18;4.28;;;;;;;;;;4965912;28;20026;-71
2023/12/19 12:03:10;;;;;;;8.07;3.60;;;;;;;;;;4968548;28;20034;-75
2023/12/19 12:05:36;;;;;;;9.57;3.50;;;;;;;;;;4966009;28;20035;-73
2023/12/19 12:08:02;;;;;;;6.45;3.35;;;;;;;;;;4972723;28;20034;-72
2023/12/19 12:10:28;;;;;;;14.98;3.58;;;;;;;;;;4972483;28;20021;-74
2023/12/19 12:12:54;;;;;;;9.88;3.63;;;;;;;;;;4965383;28;20019;-71
2023/12/19 12:15:21;;;;;;;10.57;4.13;;;;;;;;;;4964543;28;20042;-73
2023/12/19 12:17:46;;;;;;;6.68;3.40;;;;;;;;;;4972108;28;20081;-73
2023/12/19 12:20:12;;;;;;;6.50;3.25;;;;;;;;;;4969998;28;20018;-73
2023/12/19 12:22:37;;;;;;;6.75;3.75;;;;;;;;;;4971230;28;20053;-73
2023/12/19 12:25:03;;;;;;;9.52;3.67;;;;;;;;;;4972021;28;20022;-72
2023/12/19 12:27:28;;;;;;;14.55;3.97;;;;;;;;;;4971754;28;20034;-71
2023/12/19 12:29:57;;;;;;;12.60;3.85;;;;;;;;;;4970465;28;20628;-73
2023/12/19 12:32:24;;;;;;;8.18;3.83;;;;;;;;;;4971663;28;20434;-74
2023/12/19 12:34:49;;;;;;;6.35;3.15;;;;;;;;;;4972053;28;20640;-71
2023/12/19 12:37:17;;;;;;;7.10;3.40;;;;;;;;;;4970675;28;20022;-73
2023/12/19 12:39:43;;;;;;;11.05;3.47;;;;;;;;;;4968705;28;20439;-73
2023/12/19 12:42:08;;;;;;;6.95;2.90;;;;;;;;;;4971778;28;20026;-71
2023/12/19 12:44:34;;;;;;;6.80;3.38;;;;;;;;;;4967330;28;20483;-72
2023/12/19 12:47:00;;;;;;;14.25;4.38;;;;;;;;;;4966302;28;20073;-72
2023/12/19 12:49:25;;;;;;;9.35;4.10;;;;;;;;;;4972364;28;20015;-72
2023/12/19 12:51:54;;;;;;;6.30;3.25;;;;;;;;;;4969342;28;20018;-72
2023/12/19 12:54:20;;;;;;;7.85;3.47;;;;;;;;;;4970747;28;20023;-71
2023/12/19 12:56:46;;;;;;;8.05;3.47;;;;;;;;;;4965691;28;20096;-71
2023/12/19 12:59:18;;;;;;;10.63;3.75;;;;;;;;;;4971052;28;20053;-73
2023/12/19 13:01:47;;;;;;;6.70;3.72;;;;;;;;;;4969503;28;20428;-72
2023/12/19 13:04:13;;;;;;;5.75;2.90;;;;;;;;;;4969298;28;20102;-71
2023/12/19 13:06:41;;;;;;;8.05;3.92;;;;;;;;;;4968344;28;20492;-70
2023/12/19 13:09:13;;;;;;;9.60;4.25;;;;;;;;;;4973352;28;20069;-72
2023/12/19 13:11:42;;;;;;;9.27;3.80;;;;;;;;;;4974764;28;20512;-71
2023/12/19 13:14:08;;;;;;;10.73;3.72;;;;;;;;;;4965282;28;20026;-71
2023/12/19 13:16:33;;;;;;;6.90;3.13;;;;;;;;;;4969949;28;20858;-73
2023/12/19 13:18:58;;;;;;;12.27;3.60;;;;;;;;;;4970310;28;20069;-73
2023/12/19 13:21:23;;;;;;;7.63;3.38;;;;;;;;;;4971009;28;20382;-75
2023/12/19 13:23:48;;;;;;;6.32;3.10;;;;;;;;;;4971623;28;20162;-73
2023/12/19 13:26:14;;;;;;;8.15;3.03;;;;;;;;;;4970625;28;20398;-73
2023/12/19 13:28:39;;;;;;;7.45;3.55;;;;;;;;;;4970581;28;20093;-72
2023/12/19 13:31:04;;;;;;;7.18;4.00;;;;;;;;;;4970000;28;20046;-71
2023/12/19 13:33:30;;;;;;;8.13;3.42;;;;;;;;;;4970679;28;20014;-72
2023/12/19 13:35:55;;;;;;;7.70;3.67;;;;;;;;;;4969767;28;20430;-71
2023/12/19 13:38:20;;;;;;;7.32;3.53;;;;;;;;;;4969650;28;20023;-72
2023/12/19 13:40:46;;;;;;;8.18;3.45;;;;;;;;;;4970454;28;20025;-71
2023/12/19 13:43:11;;;;;;;12.32;3.50;;;;;;;;;;4971267;28;20019;-72
2023/12/19 13:45:36;;;;;;;10.40;3.53;;;;;;;;;;4970162;28;20482;-72
2023/12/19 13:48:04;;;;;;;9.90;3.83;;;;;;;;;;4970671;28;20035;-72
2023/12/19 13:50:29;;;;;;;14.15;3.78;;;;;;;;;;4971006;28;20022;-72
2023/12/19 13:52:54;;;;;;;13.65;3.75;;;;;;;;;;4969947;28;20010;-71
2023/12/19 13:55:20;;;;;;;7.70;3.35;;;;;;;;;;4969005;28;20019;-71
2023/12/19 13:57:45;;;;;;;7.55;3.72;;;;;;;;;;4960925;28;20517;-72
2023/12/19 14:00:14;;;;;;;9.50;3.75;;;;;;;;;;4968388;28;20478;-70
2023/12/19 14:02:40;;;;;;;6.85;3.40;;;;;;;;;;4967659;28;20149;-71
2023/12/19 14:05:06;;;;;;;6.88;3.50;;;;;;;;;;4968139;28;20106;-70
2023/12/19 14:07:32;;;;;;;10.48;4.32;;;;;;;;;;4970304;28;20110;-73
2023/12/19 14:09:57;;;;;;;7.65;3.17;;;;;;;;;;4969739;28;20065;-72
2023/12/19 14:12:23;;;;;;;7.30;3.30;;;;;;;;;;4965650;28;20063;-72
2023/12/19 14:14:48;;;;;;;7.82;3.72;;;;;;;;;;4962744;28;20433;-71
2023/12/19 14:17:16;;;;;;;6.68;3.42;;;;;;;;;;4963305;28;20058;-72
2023/12/19 14:19:42;;;;;;;12.02;4.70;;;;;;;;;;4967031;28;20118;-70
2023/12/19 14:22:07;;;;;;;13.57;3.78;;;;;;;;;;4970664;28;20170;-72
2023/12/19 14:24:32;;;;;;;9.00;4.22;;;;;;;;;;4969350;28;20027;-71
2023/12/19 14:26:57;;;;;;;7.07;3.58;;;;;;;;;;4967071;28;20011;-71
2023/12/19 14:29:23;;;;;;;8.55;3.88;;;;;;;;;;4970835;28;20030;-71
2023/12/19 14:31:48;;;;;;;8.43;4.15;;;;;;;;;;4967231;28;20015;-73
2023/12/19 14:34:15;;;;;;;8.02;4.18;;;;;;;;;;4968603;28;20488;-72